createdAt,value
2019-02-27T00:02:28.949Z,103155.91
2019-02-27T00:04:58.003Z,103153.39
2019-02-27T00:07:27.370Z,103156.70
2019-02-27T00:09:56.436Z,103151.67
2019-02-27T00:12:25.488Z,103140.73
2019-02-27T00:14:54.552Z,103140.73
2019-02-27T00:17:23.566Z,103141.92
2019-02-27T00:19:52.618Z,103141.86
2019-02-27T00:22:21.674Z,103137.09
2019-02-27T00:24:51.022Z,103136.62
2019-02-27T00:27:20.067Z,103131.19
2019-02-27T00:29:49.118Z,103129.53
2019-02-27T00:32:18.668Z,103135.37
2019-02-27T00:34:48.206Z,103128.67
2019-02-27T00:37:19.022Z,103124.04
2019-02-27T00:39:47.958Z,103125.30
2019-02-27T00:42:20.626Z,103125.30
2019-02-27T00:44:48.254Z,103119.46
2019-02-27T00:47:20.113Z,103119.92
2019-02-27T00:49:48.369Z,103117.87
2019-02-27T00:52:18.377Z,103115.69
2019-02-27T00:54:47.827Z,103114.48
2019-02-27T00:57:20.488Z,103115.28
2019-02-27T00:59:47.566Z,103108.52
2019-02-27T01:02:19.909Z,103103.42
2019-02-27T01:04:47.363Z,103095.88
2019-02-27T01:07:20.195Z,103092.89
2019-02-27T01:09:48.233Z,103092.09
2019-02-27T01:12:17.300Z,103089.23
2019-02-27T01:14:46.315Z,103088.91
2019-02-27T01:17:15.346Z,103091.42
2019-02-27T01:19:44.449Z,103080.55
2019-02-27T01:22:13.818Z,103081.02
2019-02-27T01:24:43.151Z,103082.34
2019-02-27T01:27:12.091Z,103083.53
2019-02-27T01:29:41.145Z,103075.52
2019-02-27T01:32:10.202Z,103066.11
2019-02-27T01:34:39.265Z,103072.81
2019-02-27T01:37:08.343Z,103075.59
2019-02-27T01:39:37.627Z,103077.98
2019-02-27T01:42:06.678Z,103076.13
2019-02-27T01:44:35.736Z,103073.82
2019-02-27T01:47:04.781Z,103072.44
2019-02-27T01:49:33.771Z,103061.77
2019-02-27T01:52:02.827Z,103066.21
2019-02-27T01:54:31.846Z,103056.08
2019-02-27T01:57:02.964Z,103052.50
2019-02-27T01:59:31.643Z,103050.66
2019-02-27T02:02:01.072Z,103039.95
2019-02-27T02:04:31.433Z,103034.40
2019-02-27T02:07:00.488Z,103031.75
2019-02-27T02:09:32.772Z,103027.05
2019-02-27T02:12:03.134Z,103031.95
2019-02-27T02:14:54.911Z,103024.34
2019-02-27T02:17:59.745Z,103014.53
2019-02-27T02:21:05.953Z,103016.13
2019-02-27T02:23:53.076Z,103018.38
2019-02-27T02:27:08.137Z,103008.97
2019-02-27T02:30:08.722Z,103005.53
2019-02-27T02:33:06.562Z,103008.38
2019-02-27T02:36:01.625Z,103009.17
2019-02-27T02:39:20.520Z,103004.60
2019-02-27T02:42:30.724Z,103002.55
2019-02-27T02:45:13.715Z,102999.44
2019-02-27T02:47:55.827Z,103002.28
2019-02-27T02:51:28.986Z,102996.33
2019-02-27T02:54:37.562Z,102981.97
2019-02-27T02:57:36.265Z,102973.09
2019-02-27T03:00:22.424Z,102964.63
2019-02-27T03:03:04.138Z,102965.28
2019-02-27T03:06:13.916Z,102966.01
2019-02-27T03:09:15.416Z,102962.50
2019-02-27T03:12:13.967Z,102959.72
2019-02-27T03:15:08.013Z,102954.42
2019-02-27T03:18:00.078Z,102958.36
2019-02-27T03:20:44.465Z,102946.91
2019-02-27T03:23:41.586Z,102953.98
2019-02-27T03:26:53.920Z,102949.75
2019-02-27T03:29:59.707Z,102946.38
2019-02-27T03:32:40.909Z,102943.00
2019-02-27T03:35:31.562Z,102931.75
2019-02-27T03:38:29.283Z,102928.84
2019-02-27T03:41:36.205Z,102920.91
2019-02-27T03:44:23.952Z,102918.79
2019-02-27T03:47:23.419Z,102921.70
2019-02-27T03:50:32.258Z,102916.67
2019-02-27T03:53:35.651Z,102913.77
2019-02-27T03:56:35.191Z,102915.81
2019-02-27T03:59:19.476Z,102912.51
2019-02-27T04:02:33.089Z,102910.06
2019-02-27T04:05:51.141Z,102910.12
2019-02-27T04:08:53.325Z,102909.44
2019-02-27T04:11:22.403Z,102904.08
2019-02-27T04:13:52.047Z,102906.79
2019-02-27T04:16:21.279Z,102901.10
2019-02-27T04:18:50.649Z,102904.14
2019-02-27T04:21:25.072Z,102903.02
2019-02-27T04:23:51.966Z,102904.73
2019-02-27T04:26:20.977Z,102898.05
2019-02-27T04:28:50.042Z,102901.49
2019-02-27T04:31:19.342Z,102897.39
2019-02-27T04:33:48.405Z,102899.11
2019-02-27T04:36:17.791Z,102896.59
2019-02-27T04:38:46.729Z,102897.39
2019-02-27T04:41:18.182Z,102890.64
2019-02-27T04:43:46.482Z,102893.03
2019-02-27T04:46:15.550Z,102894.61
2019-02-27T04:48:44.582Z,102890.71
2019-02-27T04:51:16.946Z,102876.75
2019-02-27T04:53:44.750Z,102873.78
2019-02-27T04:56:13.812Z,102876.63
2019-02-27T04:58:43.752Z,102874.50
2019-02-27T05:01:12.772Z,102875.43
2019-02-27T05:03:41.793Z,102874.50
2019-02-27T05:06:11.983Z,102873.19
2019-02-27T05:08:41.865Z,102874.91
2019-02-27T05:11:13.983Z,102872.39
2019-02-27T05:13:41.683Z,102875.83
2019-02-27T05:16:13.941Z,102873.31
2019-02-27T05:18:41.783Z,102863.72
2019-02-27T05:21:10.842Z,102856.18
2019-02-27T05:23:40.199Z,102861.73
2019-02-27T05:26:09.424Z,102855.84
2019-02-27T05:28:38.441Z,102864.64
2019-02-27T05:31:07.457Z,102848.17
2019-02-27T05:33:38.864Z,102854.00
2019-02-27T05:36:07.113Z,102849.37
2019-02-27T05:38:36.196Z,102838.84
2019-02-27T05:41:05.210Z,102840.17
2019-02-27T05:43:34.234Z,102838.12
2019-02-27T05:46:03.815Z,102842.22
2019-02-27T05:48:32.980Z,102839.31
2019-02-27T05:51:02.036Z,102841.76
2019-02-27T05:53:31.146Z,102844.80
2019-02-27T05:56:00.168Z,102847.31
2019-02-27T05:58:29.210Z,102845.66
2019-02-27T06:00:58.242Z,102840.36
2019-02-27T06:03:27.274Z,102843.41
2019-02-27T06:05:56.443Z,102842.27
2019-02-27T06:08:25.379Z,102836.52
2019-02-27T06:10:56.044Z,102840.34
2019-02-27T06:13:25.251Z,102843.85
2019-02-27T06:15:54.300Z,102845.05
2019-02-27T06:18:23.835Z,102844.04
2019-02-27T06:20:52.885Z,102837.88
2019-02-27T06:23:21.840Z,102837.67
2019-02-27T06:25:50.981Z,102833.63
2019-02-27T06:28:20.005Z,102837.13
2019-02-27T06:30:49.085Z,102828.97
2019-02-27T06:33:18.100Z,102828.02
2019-02-27T06:35:47.110Z,102820.13
2019-02-27T06:38:16.112Z,102827.00
2019-02-27T06:40:45.130Z,102830.09
2019-02-27T06:43:14.105Z,102828.16
2019-02-27T06:45:45.516Z,102836.78
2019-02-27T06:48:13.922Z,102838.50
2019-02-27T06:50:42.972Z,102823.98
2019-02-27T06:53:15.536Z,102825.13
2019-02-27T06:55:42.768Z,102824.11
2019-02-27T06:58:14.833Z,102828.98
2019-02-27T07:00:43.104Z,102820.11
2019-02-27T07:03:12.071Z,102823.37
2019-02-27T07:05:41.129Z,102810.72
2019-02-27T07:08:10.184Z,102805.56
2019-02-27T07:10:39.249Z,102801.40
2019-02-27T07:13:08.225Z,102802.58
2019-02-27T07:15:37.298Z,102795.75
2019-02-27T07:18:06.749Z,102790.27
2019-02-27T07:20:35.889Z,102801.73
2019-02-27T07:23:04.879Z,102798.17
2019-02-27T07:25:33.894Z,102794.21
2019-02-27T07:28:03.564Z,102808.63
2019-02-27T07:30:32.642Z,102801.01
2019-02-27T07:33:03.776Z,102808.86
2019-02-27T07:35:32.834Z,102805.79
2019-02-27T07:38:01.882Z,102796.09
2019-02-27T07:40:30.935Z,102804.98
2019-02-27T07:42:59.995Z,102792.89
2019-02-27T07:45:29.050Z,102804.75
2019-02-27T07:47:58.097Z,102793.08
2019-02-27T07:50:27.029Z,102805.66
2019-02-27T07:52:56.082Z,102803.55
2019-02-27T07:55:27.764Z,102800.18
2019-02-27T07:57:58.778Z,102802.36
2019-02-27T08:00:27.174Z,102799.86
2019-02-27T08:02:56.197Z,102792.45
2019-02-27T08:05:28.268Z,102791.97
2019-02-27T08:07:56.003Z,102785.09
2019-02-27T08:10:25.054Z,102785.16
2019-02-27T08:12:56.543Z,102791.25
2019-02-27T08:15:25.636Z,102793.43
2019-02-27T08:17:57.627Z,102792.29
2019-02-27T08:20:25.477Z,102787.38
2019-02-27T08:22:54.543Z,102782.08
2019-02-27T08:25:23.591Z,102771.34
2019-02-27T08:27:54.277Z,102779.16
2019-02-27T08:30:23.541Z,102781.94
2019-02-27T08:32:52.546Z,102770.35
2019-02-27T08:35:21.554Z,102773.19
2019-02-27T08:37:50.610Z,102764.57
2019-02-27T08:40:24.085Z,102750.89
2019-02-27T08:42:50.429Z,102746.88
2019-02-27T08:45:20.626Z,102750.32
2019-02-27T08:47:49.999Z,102758.64
2019-02-27T08:50:19.053Z,102757.92
2019-02-27T08:52:51.444Z,102766.55
2019-02-27T08:55:22.079Z,102748.99
2019-02-27T08:57:50.100Z,102741.99
2019-02-27T09:00:23.317Z,102745.16
2019-02-27T09:02:52.521Z,102744.00
2019-02-27T09:05:21.676Z,102740.83
2019-02-27T09:07:50.727Z,102741.36
2019-02-27T09:10:19.823Z,102735.52
2019-02-27T09:12:51.574Z,102738.10
2019-02-27T09:15:19.922Z,102732.27
2019-02-27T09:17:49.069Z,102717.10
2019-02-27T09:20:19.695Z,102712.48
2019-02-27T09:22:49.097Z,102714.66
2019-02-27T09:25:18.222Z,102706.69
2019-02-27T09:27:47.501Z,102713.59
2019-02-27T09:30:16.801Z,102711.95
2019-02-27T09:32:46.118Z,102717.92
2019-02-27T09:35:15.551Z,102714.13
2019-02-27T09:37:44.613Z,102714.58
2019-02-27T09:40:16.010Z,102705.25
2019-02-27T09:42:45.088Z,102712.48
2019-02-27T09:45:31.156Z,102709.97
2019-02-27T09:48:00.780Z,102703.59
2019-02-27T09:50:33.110Z,102700.61
2019-02-27T09:53:03.609Z,102700.17
2019-02-27T09:55:33.023Z,102701.01
2019-02-27T09:58:02.059Z,102693.77
2019-02-27T10:00:36.267Z,102688.66
2019-02-27T10:03:05.434Z,102680.10
2019-02-27T10:05:36.687Z,102684.34
2019-02-27T10:08:07.505Z,102687.75
2019-02-27T10:10:36.684Z,102686.84
2019-02-27T10:13:05.763Z,102674.05
2019-02-27T10:15:34.909Z,102680.35
2019-02-27T10:18:04.066Z,102684.20
2019-02-27T10:20:36.961Z,102673.48
2019-02-27T10:23:03.870Z,102679.41
2019-02-27T10:25:32.885Z,102679.02
2019-02-27T10:28:04.325Z,102673.02
2019-02-27T10:30:32.726Z,102671.27
2019-02-27T10:33:03.310Z,102666.91
2019-02-27T10:35:34.777Z,102664.69
2019-02-27T10:38:03.786Z,102667.60
2019-02-27T10:40:32.923Z,102651.36
2019-02-27T10:43:02.196Z,102646.53
2019-02-27T10:45:31.217Z,102641.80
2019-02-27T10:48:00.127Z,102630.59
2019-02-27T10:50:29.149Z,102627.12
2019-02-27T10:52:58.210Z,102635.57
2019-02-27T10:55:27.295Z,102625.25
2019-02-27T10:57:56.297Z,102627.73
2019-02-27T11:00:32.587Z,102620.47
2019-02-27T11:03:01.666Z,102604.49
2019-02-27T11:05:31.662Z,102600.95
2019-02-27T11:07:59.967Z,102608.02
2019-02-27T11:10:29.045Z,102592.00
2019-02-27T11:12:58.363Z,102588.58
2019-02-27T11:15:27.401Z,102584.26
2019-02-27T11:17:56.454Z,102572.23
2019-02-27T11:20:25.514Z,102584.21
2019-02-27T11:22:54.582Z,102580.67
2019-02-27T11:25:23.903Z,102590.77
2019-02-27T11:27:52.930Z,102582.91
2019-02-27T11:30:24.385Z,102582.29
2019-02-27T11:32:56.885Z,102598.21
2019-02-27T11:35:25.175Z,102578.78
2019-02-27T11:37:55.058Z,102586.84
2019-02-27T11:40:24.302Z,102589.91
2019-02-27T11:42:53.565Z,102591.05
2019-02-27T11:45:24.642Z,102579.91
2019-02-27T11:47:53.665Z,102582.89
2019-02-27T11:50:22.685Z,102581.58
2019-02-27T11:52:51.985Z,102571.14
2019-02-27T11:55:21.337Z,102568.66
2019-02-27T11:57:50.490Z,102567.83
2019-02-27T12:00:28.751Z,102560.05
2019-02-27T12:02:58.324Z,102560.59
2019-02-27T12:05:31.365Z,102550.45
2019-02-27T12:07:58.324Z,102545.25
2019-02-27T12:10:28.054Z,102551.67
2019-02-27T12:13:00.886Z,102550.16
2019-02-27T12:15:28.040Z,102545.55
2019-02-27T12:17:59.839Z,102543.50
2019-02-27T12:20:27.974Z,102535.54
2019-02-27T12:22:57.034Z,102532.09
2019-02-27T12:25:28.098Z,102514.72
2019-02-27T12:27:57.152Z,102524.91
2019-02-27T12:30:27.070Z,102524.56
2019-02-27T12:32:57.080Z,102508.36
2019-02-27T12:35:27.972Z,102501.84
2019-02-27T12:37:57.036Z,102486.08
2019-02-27T12:40:26.062Z,102484.66
2019-02-27T12:42:55.140Z,102479.42
2019-02-27T12:45:25.862Z,102472.36
2019-02-27T12:47:55.706Z,102464.27
2019-02-27T12:50:26.573Z,102463.45
2019-02-27T12:52:56.120Z,102452.09
2019-02-27T12:55:25.586Z,102451.28
2019-02-27T12:57:54.662Z,102454.09
2019-02-27T13:00:28.242Z,102451.86
2019-02-27T13:02:58.966Z,102455.30
2019-02-27T13:05:28.508Z,102455.64
2019-02-27T13:07:57.960Z,102444.52
2019-02-27T13:10:27.095Z,102444.64
2019-02-27T13:12:56.161Z,102428.54
2019-02-27T13:15:25.377Z,102411.43
2019-02-27T13:17:57.439Z,102406.19
2019-02-27T13:20:26.593Z,102397.37
2019-02-27T13:22:55.612Z,102397.67
2019-02-27T13:25:24.941Z,102401.73
2019-02-27T13:27:54.099Z,102384.69
2019-02-27T13:30:23.189Z,102376.84
2019-02-27T13:32:52.239Z,102376.44
2019-02-27T13:35:23.131Z,102377.18
2019-02-27T13:37:52.462Z,102366.66
2019-02-27T13:40:21.498Z,102361.76
2019-02-27T13:42:53.439Z,102366.34
2019-02-27T13:45:23.257Z,102368.86
2019-02-27T13:47:52.372Z,102360.30
2019-02-27T13:50:24.441Z,102352.97
2019-02-27T13:52:52.490Z,102338.43
2019-02-27T13:55:21.976Z,102331.80
2019-02-27T13:57:51.337Z,102325.30
2019-02-27T14:00:29.945Z,102316.19
2019-02-27T14:02:58.960Z,102305.47
2019-02-27T14:05:29.498Z,102298.05
2019-02-27T14:07:59.103Z,102287.63
2019-02-27T14:10:28.724Z,102282.62
2019-02-27T14:12:57.804Z,102277.41
2019-02-27T14:15:28.149Z,102276.04
2019-02-27T14:17:57.409Z,102274.86
2019-02-27T14:20:27.382Z,102269.16
2019-02-27T14:22:57.553Z,102268.38
2019-02-27T14:25:31.165Z,102259.12
2019-02-27T14:27:57.907Z,102261.81
2019-02-27T14:30:29.627Z,102267.42
2019-02-27T14:32:58.646Z,102261.00
2019-02-27T14:35:27.653Z,102257.66
2019-02-27T14:37:56.670Z,102254.18
2019-02-27T14:40:25.788Z,102245.36
2019-02-27T14:42:55.228Z,102233.34
2019-02-27T14:45:24.355Z,102227.09
2019-02-27T14:47:53.470Z,102233.56
2019-02-27T14:50:22.745Z,102220.33
2019-02-27T14:52:51.828Z,102223.98
2019-02-27T14:55:20.933Z,102221.92
2019-02-27T14:57:51.056Z,102206.15
2019-02-27T15:00:25.295Z,102193.14
2019-02-27T15:02:55.545Z,102202.66
2019-02-27T15:05:25.296Z,102192.48
2019-02-27T15:07:54.866Z,102182.26
2019-02-27T15:10:24.421Z,102174.66
2019-02-27T15:12:55.050Z,102174.62
2019-02-27T15:15:25.994Z,102161.99
2019-02-27T15:17:55.130Z,102156.05
2019-02-27T15:20:24.946Z,102153.42
2019-02-27T15:22:54.005Z,102153.55
2019-02-27T15:25:23.092Z,102151.05
2019-02-27T15:27:52.132Z,102147.67
2019-02-27T15:30:22.908Z,102133.22
2019-02-27T15:32:51.930Z,102123.00
2019-02-27T15:35:22.189Z,102127.41
2019-02-27T15:37:51.783Z,102118.96
2019-02-27T15:40:22.024Z,102118.39
2019-02-27T15:42:51.041Z,102114.61
2019-02-27T15:45:20.673Z,102114.27
2019-02-27T15:47:49.845Z,102107.59
2019-02-27T15:50:22.851Z,102104.69
2019-02-27T15:52:50.896Z,102105.23
2019-02-27T15:55:19.924Z,102093.15
2019-02-27T15:57:53.687Z,102088.52
2019-02-27T16:00:21.538Z,102085.19
2019-02-27T16:02:50.664Z,102083.70
2019-02-27T16:05:20.018Z,102074.53
2019-02-27T16:07:49.795Z,102074.78
2019-02-27T16:10:20.468Z,102068.48
2019-02-27T16:12:49.610Z,102061.83
2019-02-27T16:15:18.737Z,102050.87
2019-02-27T16:17:47.831Z,102047.65
2019-02-27T16:20:17.765Z,102041.42
2019-02-27T16:22:46.814Z,102035.57
2019-02-27T16:25:19.880Z,102025.48
2019-02-27T16:27:48.375Z,102022.21
2019-02-27T16:30:22.886Z,102016.36
2019-02-27T16:32:52.228Z,102008.39
2019-02-27T16:35:21.230Z,102005.53
2019-02-27T16:37:56.273Z,102002.23
2019-02-27T16:40:22.034Z,101998.95
2019-02-27T16:42:51.405Z,101992.28
2019-02-27T16:45:22.999Z,101978.80
2019-02-27T16:47:54.080Z,101973.86
2019-02-27T16:50:24.758Z,101973.14
2019-02-27T16:52:54.586Z,101973.27
2019-02-27T16:55:24.168Z,101963.62
2019-02-27T16:57:56.477Z,101957.38
2019-02-27T17:00:25.950Z,101946.02
2019-02-27T17:02:56.959Z,101938.05
2019-02-27T17:05:25.777Z,101933.88
2019-02-27T17:08:00.271Z,101929.30
2019-02-27T17:10:29.292Z,101921.29
2019-02-27T17:12:58.384Z,101917.98
2019-02-27T17:15:27.402Z,101916.38
2019-02-27T17:17:56.466Z,101918.14
2019-02-27T17:20:25.486Z,101908.41
2019-02-27T17:22:54.517Z,101906.75
2019-02-27T17:25:28.669Z,101895.36
2019-02-27T17:27:54.323Z,101895.81
2019-02-27T17:30:28.197Z,101890.33
2019-02-27T17:32:57.200Z,101889.09
2019-02-27T17:35:26.538Z,101887.86
2019-02-27T17:37:55.548Z,101893.38
2019-02-27T17:40:24.613Z,101883.64
2019-02-27T17:42:54.467Z,101892.98
2019-02-27T17:45:23.594Z,101877.34
2019-02-27T17:47:52.617Z,101883.25
2019-02-27T17:50:21.633Z,101877.77
2019-02-27T17:52:50.782Z,101875.24
2019-02-27T17:55:19.824Z,101878.23
2019-02-27T17:57:48.878Z,101873.16
2019-02-27T18:00:23.533Z,101865.11
2019-02-27T18:02:52.589Z,101855.38
2019-02-27T18:05:22.286Z,101850.30
2019-02-27T18:07:52.388Z,101839.72
2019-02-27T18:10:21.957Z,101838.03
2019-02-27T18:12:51.726Z,101843.95
2019-02-27T18:15:21.303Z,101840.15
2019-02-27T18:17:50.640Z,101844.81
2019-02-27T18:20:24.375Z,101842.27
2019-02-27T18:22:51.004Z,101838.89
2019-02-27T18:25:20.127Z,101839.73
2019-02-27T18:27:49.200Z,101835.90
2019-02-27T18:30:18.832Z,101833.36
2019-02-27T18:32:48.754Z,101833.36
2019-02-27T18:35:17.904Z,101832.09
2019-02-27T18:37:47.068Z,101832.52
2019-02-27T18:40:16.290Z,101829.95
2019-02-27T18:42:45.561Z,101828.27
2019-02-27T18:45:16.205Z,101823.19
2019-02-27T18:47:45.378Z,101826.15
2019-02-27T18:50:14.828Z,101807.53
2019-02-27T18:52:44.152Z,101800.76
2019-02-27T18:55:13.425Z,101804.14
2019-02-27T18:57:45.952Z,101798.22
2019-02-27T19:00:19.318Z,101785.52
2019-02-27T19:02:52.008Z,101775.36
2019-02-27T19:05:19.466Z,101768.13
2019-02-27T19:07:53.624Z,101779.53
2019-02-27T19:10:19.256Z,101778.67
2019-02-27T19:12:48.304Z,101779.92
2019-02-27T19:15:18.620Z,101778.20
2019-02-27T19:17:47.634Z,101777.33
2019-02-27T19:20:23.961Z,101776.47
2019-02-27T19:22:50.114Z,101766.30
2019-02-27T19:25:19.236Z,101754.86
2019-02-27T19:27:49.845Z,101748.44
2019-02-27T19:30:19.914Z,101737.02
2019-02-27T19:32:49.421Z,101727.70
2019-02-27T19:35:21.561Z,101718.44
2019-02-27T19:37:49.489Z,101721.84
2019-02-27T19:40:19.434Z,101712.98
2019-02-27T19:42:56.351Z,101719.38
2019-02-27T19:45:25.488Z,101724.03
2019-02-27T19:47:55.782Z,101712.23
2019-02-27T19:50:25.133Z,101712.67
2019-02-27T19:52:54.339Z,101701.69
2019-02-27T19:55:26.263Z,101708.45
2019-02-27T19:57:54.489Z,101697.89
2019-02-27T20:00:25.017Z,101693.23
2019-02-27T20:02:57.466Z,101686.05
2019-02-27T20:05:24.998Z,101678.86
2019-02-27T20:07:54.379Z,101674.20
2019-02-27T20:10:23.381Z,101676.74
2019-02-27T20:12:53.830Z,101669.98
2019-02-27T20:15:23.491Z,101664.48
2019-02-27T20:17:53.153Z,101652.64
2019-02-27T20:20:23.053Z,101646.70
2019-02-27T20:22:53.539Z,101646.68
2019-02-27T20:25:23.621Z,101642.02
2019-02-27T20:27:52.893Z,101634.83
2019-02-27T20:30:21.966Z,101633.55
2019-02-27T20:32:50.989Z,101630.99
2019-02-27T20:35:20.764Z,101626.75
2019-02-27T20:37:50.450Z,101636.86
2019-02-27T20:40:19.525Z,101629.66
2019-02-27T20:42:50.447Z,101623.30
2019-02-27T20:45:20.002Z,101629.19
2019-02-27T20:47:49.061Z,101615.24
2019-02-27T20:50:34.451Z,101619.87
2019-02-27T20:52:54.703Z,101613.11
2019-02-27T20:55:23.726Z,101612.68
2019-02-27T20:57:52.776Z,101601.66
2019-02-27T21:00:22.408Z,101597.38
2019-02-27T21:02:53.525Z,101590.20
2019-02-27T21:05:22.890Z,101593.56
2019-02-27T21:07:52.309Z,101582.59
2019-02-27T21:10:22.552Z,101577.93
2019-02-27T21:12:54.309Z,101579.59
2019-02-27T21:15:24.850Z,101568.17
2019-02-27T21:17:57.749Z,101563.50
2019-02-27T21:20:24.468Z,101561.36
2019-02-27T21:22:53.478Z,101566.37
2019-02-27T21:25:22.794Z,101560.03
2019-02-27T21:27:51.772Z,101554.94
2019-02-27T21:30:20.851Z,101563.31
2019-02-27T21:32:49.904Z,101561.58
2019-02-27T21:35:18.920Z,101547.17
2019-02-27T21:37:47.938Z,101543.75
2019-02-27T21:40:17.046Z,101536.56
2019-02-27T21:42:46.049Z,101536.53
2019-02-27T21:45:16.096Z,101530.59
2019-02-27T21:47:45.382Z,101531.83
2019-02-27T21:50:16.222Z,101524.23
2019-02-27T21:52:45.377Z,101530.52
2019-02-27T21:55:14.397Z,101526.70
2019-02-27T21:57:43.447Z,101522.06
2019-02-27T22:00:17.097Z,101517.01
2019-02-27T22:02:46.202Z,101522.87
2019-02-27T22:05:18.880Z,101531.70
2019-02-27T22:07:49.369Z,101536.36
2019-02-27T22:10:19.536Z,101530.45
2019-02-27T22:12:49.556Z,101535.52
2019-02-27T22:15:22.989Z,101514.03
2019-02-27T22:17:51.694Z,101508.56
2019-02-27T22:20:21.103Z,101506.44
2019-02-27T22:22:50.518Z,101510.20
2019-02-27T22:25:19.577Z,101510.16
2019-02-27T22:27:48.658Z,101513.50
2019-02-27T22:30:18.069Z,101508.42
2019-02-27T22:32:48.083Z,101497.86
2019-02-27T22:35:17.797Z,101499.53
2019-02-27T22:37:51.268Z,101493.20
2019-02-27T22:40:18.145Z,101486.05
2019-02-27T22:42:48.572Z,101485.13
2019-02-27T22:45:18.975Z,101480.05
2019-02-27T22:47:48.155Z,101472.45
2019-02-27T22:50:17.404Z,101464.02
2019-02-27T22:52:46.421Z,101455.16
2019-02-27T22:55:15.529Z,101463.55
2019-02-27T22:57:47.733Z,101455.55
2019-02-27T23:01:08.456Z,101454.70
2019-02-27T23:03:54.921Z,101447.53
2019-02-27T23:06:23.387Z,101431.08
2019-02-27T23:08:54.427Z,101432.33
2019-02-27T23:11:23.596Z,101426.41
2019-02-27T23:13:52.609Z,101428.52
2019-02-27T23:16:21.630Z,101424.30
2019-02-27T23:18:50.727Z,101416.73
2019-02-27T23:21:19.744Z,101408.30
2019-02-27T23:23:48.826Z,101420.06
2019-02-27T23:26:20.139Z,101418.37
2019-02-27T23:28:48.663Z,101411.64
2019-02-27T23:31:22.175Z,101416.27
2019-02-27T23:33:48.446Z,101422.16
2019-02-27T23:36:17.465Z,101406.57
2019-02-27T23:38:46.513Z,101403.17
2019-02-27T23:41:15.785Z,101389.69
2019-02-27T23:43:44.879Z,101385.86
2019-02-27T23:46:15.624Z,101385.83
2019-02-27T23:48:45.062Z,101375.28
2019-02-27T23:51:16.733Z,101376.09
2019-02-27T23:53:44.874Z,101376.92
2019-02-27T23:56:19.278Z,101367.66
2019-02-27T23:58:45.107Z,101364.28
